createdAt,value
2023-10-22T11:45:59.941Z,99.90
2023-10-22T11:46:09.369Z,50.00
2023-10-22T11:46:18.754Z,50.00
2023-10-22T11:46:28.172Z,50.00
2023-10-22T11:46:37.546Z,49.90
2023-10-22T11:46:48.470Z,49.90
2023-10-22T11:47:05.865Z,49.90
2023-10-22T11:47:15.245Z,50.10
2023-10-22T11:47:24.739Z,50.30
2023-10-22T11:47:34.043Z,50.30
2023-10-22T11:47:43.444Z,50.40
2023-10-22T11:47:52.822Z,50.40
2023-10-22T11:48:11.650Z,50.60
2023-10-22T11:48:21.128Z,50.60
2023-10-22T11:48:30.371Z,50.70
2023-10-22T11:48:39.723Z,50.80
2023-10-22T11:48:49.159Z,50.80
2023-10-22T11:48:58.447Z,50.80
2023-10-22T11:49:17.239Z,51.00
2023-10-22T11:49:26.624Z,51.00
2023-10-22T11:49:36.007Z,51.00
2023-10-22T11:49:45.401Z,51.00
2023-10-22T11:49:54.786Z,51.00
2023-10-22T11:50:04.308Z,51.00
2023-10-22T11:50:22.939Z,51.30
2023-10-22T11:50:32.321Z,51.40
2023-10-22T11:50:41.695Z,51.40
2023-10-22T11:50:51.337Z,51.50
2023-10-22T11:51:00.574Z,51.60
2023-10-22T11:51:09.930Z,51.70
2023-10-22T11:51:28.661Z,51.90
2023-10-22T11:51:38.036Z,52.00
2023-10-22T11:51:47.462Z,52.10
2023-10-22T11:51:56.966Z,52.20
2023-10-22T11:52:06.421Z,52.10
2023-10-22T11:52:15.884Z,52.10
2023-10-22T11:52:34.712Z,52.10
2023-10-22T11:52:44.132Z,52.10
2023-10-22T11:52:53.734Z,52.10
2023-10-22T11:53:03.535Z,52.00
2023-10-22T11:53:15.298Z,52.10
2023-10-22T11:53:22.390Z,52.20
2023-10-22T11:53:41.397Z,52.00
2023-10-22T11:53:50.757Z,52.00
2023-10-22T11:54:00.209Z,52.10
2023-10-22T11:54:09.590Z,52.20
2023-10-22T11:54:19.041Z,52.30
2023-10-22T11:54:28.382Z,52.40
2023-10-22T11:54:47.106Z,52.60
2023-10-22T11:54:56.491Z,52.80
2023-10-22T11:55:05.855Z,52.80
2023-10-22T11:55:32.052Z,53.00
2023-10-22T11:55:36.166Z,53.00
2023-10-22T11:55:38.751Z,53.00
2023-10-22T11:55:52.816Z,53.10
2023-10-22T11:56:02.276Z,53.30
2023-10-22T11:56:11.701Z,53.30
2023-10-22T11:56:21.121Z,53.40
2023-10-22T11:56:30.541Z,53.50
2023-10-22T11:56:39.961Z,53.50
2023-10-22T11:56:58.810Z,53.70
2023-10-22T11:57:08.237Z,53.80
2023-10-22T11:57:17.652Z,53.80
2023-10-22T11:57:27.134Z,54.00
2023-10-22T11:57:36.462Z,54.10
2023-10-22T11:57:45.896Z,54.10
2023-10-22T11:58:04.817Z,53.90
2023-10-22T11:58:14.166Z,54.00
2023-10-22T11:58:23.567Z,53.90
2023-10-22T11:58:32.959Z,53.80
2023-10-22T11:58:42.364Z,53.80
2023-10-22T11:58:51.767Z,53.80
2023-10-22T11:59:10.622Z,53.70
2023-10-22T11:59:20.514Z,53.70
2023-10-22T11:59:29.995Z,53.60
2023-10-22T11:59:39.416Z,53.50
2023-10-22T11:59:48.819Z,53.50
2023-10-22T11:59:58.287Z,53.60
2023-10-22T12:00:17.035Z,53.70
2023-10-22T12:00:26.472Z,53.70
2023-10-22T12:00:35.879Z,53.80
2023-10-22T12:00:45.265Z,53.90
2023-10-22T12:00:54.662Z,53.80
2023-10-22T12:01:04.131Z,53.80
2023-10-22T12:01:22.942Z,53.90
2023-10-22T12:01:32.360Z,53.90
2023-10-22T12:01:41.998Z,53.90
2023-10-22T12:01:51.432Z,54.00
2023-10-22T12:02:00.914Z,54.00
2023-10-22T12:02:10.401Z,54.10
2023-10-22T12:02:29.290Z,54.00
2023-10-22T12:02:38.709Z,53.90
2023-10-22T12:02:48.111Z,54.00
2023-10-22T12:02:57.667Z,54.10
2023-10-22T12:03:07.107Z,54.20
2023-10-22T12:03:16.757Z,54.10
2023-10-22T12:03:35.372Z,54.00
2023-10-22T12:03:44.675Z,54.00
2023-10-22T12:03:54.070Z,54.00
2023-10-22T12:04:03.563Z,54.10
2023-10-22T12:04:13.066Z,54.10
2023-10-22T12:04:22.518Z,54.20
2023-10-22T12:04:41.325Z,54.30
2023-10-22T12:04:50.824Z,54.30
2023-10-22T12:05:03.102Z,54.40
2023-10-22T12:05:09.701Z,54.40
2023-10-22T12:05:19.118Z,54.40
2023-10-22T12:05:28.511Z,54.60
2023-10-22T12:05:47.323Z,54.70
2023-10-22T12:05:56.773Z,54.70
2023-10-22T12:06:06.201Z,54.80
2023-10-22T12:06:15.558Z,54.90
2023-10-22T12:06:24.970Z,55.00
2023-10-22T12:06:34.456Z,55.20
2023-10-22T12:06:53.439Z,55.20
2023-10-22T12:07:02.832Z,55.20
2023-10-22T12:07:12.239Z,55.20
2023-10-22T12:07:21.674Z,55.20
2023-10-22T12:07:31.066Z,55.20
2023-10-22T12:07:40.463Z,55.10
2023-10-22T12:07:59.400Z,55.10
2023-10-22T12:08:08.794Z,55.10
2023-10-22T12:08:18.221Z,55.20
2023-10-22T12:08:27.617Z,55.20
2023-10-22T12:08:37.097Z,55.30
2023-10-22T12:08:46.697Z,55.40
2023-10-22T12:09:05.676Z,55.30
2023-10-22T12:09:15.155Z,55.40
2023-10-22T12:09:24.607Z,55.40
2023-10-22T12:09:34.015Z,55.50
2023-10-22T12:09:43.409Z,55.60
2023-10-22T12:09:52.835Z,55.60
2023-10-22T12:10:11.790Z,55.50
2023-10-22T12:10:24.247Z,55.40
2023-10-22T12:10:33.688Z,55.40
2023-10-22T12:10:43.095Z,55.40
2023-10-22T12:10:52.481Z,55.50
2023-10-22T12:11:01.880Z,55.50
2023-10-22T12:11:20.699Z,55.60
2023-10-22T12:11:30.139Z,55.50
2023-10-22T12:11:39.588Z,55.40
2023-10-22T12:11:49.025Z,55.20
2023-10-22T12:11:58.449Z,55.20
2023-10-22T12:12:07.935Z,55.20
2023-10-22T12:12:26.737Z,55.10
2023-10-22T12:12:36.128Z,54.90
2023-10-22T12:12:45.535Z,54.70
2023-10-22T12:12:54.938Z,54.50
2023-10-22T12:13:04.361Z,54.40
2023-10-22T12:13:13.760Z,54.20
2023-10-22T12:13:32.568Z,53.90
2023-10-22T12:13:42.011Z,53.80
2023-10-22T12:13:51.434Z,53.80
2023-10-22T12:14:00.860Z,53.60
2023-10-22T12:14:10.371Z,53.60
2023-10-22T12:14:19.811Z,53.60
2023-10-22T12:14:38.675Z,53.50
2023-10-22T12:14:48.067Z,53.30
2023-10-22T12:14:57.621Z,53.30
2023-10-22T12:15:07.004Z,53.30
2023-10-22T12:15:16.451Z,53.20
2023-10-22T12:15:25.794Z,53.20
2023-10-22T12:15:44.647Z,53.20
2023-10-22T12:15:54.063Z,53.20
2023-10-22T12:16:03.461Z,53.10
2023-10-22T12:16:12.948Z,53.00
2023-10-22T12:16:22.376Z,53.00
2023-10-22T12:16:31.841Z,52.90
2023-10-22T12:16:50.657Z,52.90
2023-10-22T12:17:00.318Z,53.00
2023-10-22T12:17:09.837Z,52.90
2023-10-22T12:17:22.395Z,52.80
2023-10-22T12:17:29.372Z,52.80
2023-10-22T12:17:39.092Z,52.60
2023-10-22T12:17:58.069Z,52.80
2023-10-22T12:18:07.503Z,52.90
2023-10-22T12:18:16.915Z,52.80
2023-10-22T12:18:26.353Z,52.50
2023-10-22T12:18:35.815Z,52.40
2023-10-22T12:18:45.259Z,52.40
2023-10-22T12:19:03.920Z,52.30
2023-10-22T12:19:13.372Z,52.30
2023-10-22T12:19:22.773Z,52.30
2023-10-22T12:19:32.201Z,52.20
2023-10-22T12:19:41.630Z,52.10
2023-10-22T12:19:51.030Z,52.00
2023-10-22T12:20:09.940Z,51.90
2023-10-22T12:20:19.379Z,51.90
2023-10-22T12:20:28.792Z,52.00
2023-10-22T12:20:38.230Z,51.90
2023-10-22T12:20:47.659Z,51.80
2023-10-22T12:20:57.164Z,51.80
2023-10-22T12:21:15.997Z,51.80
2023-10-22T12:21:25.384Z,51.70
2023-10-22T12:21:34.815Z,51.80
2023-10-22T12:21:44.169Z,51.80
2023-10-22T12:21:53.571Z,51.60
2023-10-22T12:22:02.990Z,51.60
2023-10-22T12:22:21.790Z,51.70
2023-10-22T12:22:31.205Z,51.40
2023-10-22T12:22:40.632Z,51.30
2023-10-22T12:22:50.036Z,51.10
2023-10-22T12:22:59.480Z,51.00
2023-10-22T12:23:08.904Z,50.80
2023-10-22T12:23:35.082Z,50.30
2023-10-22T12:23:48.920Z,50.30
2023-10-22T12:23:50.232Z,50.10
2023-10-22T12:23:56.034Z,49.90
2023-10-22T12:24:16.368Z,49.90
2023-10-22T12:24:25.988Z,49.90
2023-10-22T12:24:33.808Z,49.80
2023-10-22T12:24:43.463Z,49.80
2023-10-22T12:24:52.621Z,49.60
2023-10-22T12:25:02.167Z,49.40
2023-10-22T12:25:11.473Z,49.40
2023-10-22T12:25:20.887Z,49.30
2023-10-22T12:25:39.693Z,49.20
2023-10-22T12:25:49.173Z,49.20
2023-10-22T12:25:58.580Z,49.10
2023-10-22T12:26:07.984Z,49.00
2023-10-22T12:26:17.504Z,49.00
2023-10-22T12:26:26.918Z,49.10
2023-10-22T12:26:45.706Z,49.30
2023-10-22T12:26:55.176Z,49.30
2023-10-22T12:27:04.623Z,49.30
2023-10-22T12:27:14.155Z,49.30
2023-10-22T12:27:23.592Z,49.30
2023-10-22T12:27:33.016Z,49.20
2023-10-22T12:27:51.892Z,48.90
2023-10-22T12:28:01.242Z,48.90
2023-10-22T12:28:10.608Z,48.90
2023-10-22T12:28:20.090Z,48.70
2023-10-22T12:28:29.467Z,48.70
2023-10-22T12:28:38.829Z,48.70
2023-10-22T12:28:57.673Z,48.80
2023-10-22T12:29:07.099Z,48.80
2023-10-22T12:29:16.492Z,48.70
2023-10-22T12:29:25.921Z,48.70
2023-10-22T12:29:35.354Z,48.80
2023-10-22T12:29:44.751Z,48.90
2023-10-22T12:30:03.845Z,48.90
2023-10-22T12:30:13.274Z,48.70
2023-10-22T12:30:22.723Z,48.70
2023-10-22T12:30:32.207Z,48.50
2023-10-22T12:30:41.540Z,48.50
2023-10-22T12:30:50.905Z,48.60
2023-10-22T12:31:09.799Z,48.70
2023-10-22T12:31:19.344Z,48.80
2023-10-22T12:31:28.834Z,48.70
2023-10-22T12:31:38.295Z,48.60
2023-10-22T12:31:47.719Z,48.70
2023-10-22T12:31:57.122Z,48.70
2023-10-22T12:32:15.948Z,48.30
2023-10-22T12:32:25.366Z,48.10
2023-10-22T12:32:34.792Z,48.00
2023-10-22T12:32:44.209Z,48.00
2023-10-22T12:32:53.683Z,48.00
2023-10-22T12:33:03.014Z,48.00
2023-10-22T12:33:21.970Z,48.10
2023-10-22T12:33:31.358Z,48.00
2023-10-22T12:33:40.753Z,48.00
2023-10-22T12:33:50.162Z,48.00
2023-10-22T12:33:59.639Z,48.10
2023-10-22T12:34:09.020Z,48.10
2023-10-22T12:34:27.872Z,48.20
2023-10-22T12:34:37.485Z,48.20
2023-10-22T12:34:46.692Z,48.00
2023-10-22T12:34:56.089Z,47.90
2023-10-22T12:35:05.531Z,47.80
2023-10-22T12:35:14.975Z,47.80
2023-10-22T12:35:33.909Z,47.40
2023-10-22T12:35:43.284Z,47.50
2023-10-22T12:35:52.770Z,47.30
2023-10-22T12:36:02.212Z,47.10
2023-10-22T12:36:11.703Z,47.00
2023-10-22T12:36:21.062Z,46.80
2023-10-22T12:36:39.810Z,46.60
2023-10-22T12:36:49.208Z,46.60
2023-10-22T12:36:58.642Z,46.80
2023-10-22T12:37:08.035Z,46.80
2023-10-22T12:37:17.437Z,46.90
2023-10-22T12:37:26.847Z,46.90
2023-10-22T12:37:45.689Z,46.80
2023-10-22T12:37:55.097Z,46.70
2023-10-22T12:38:04.507Z,46.80
2023-10-22T12:38:13.886Z,46.90
2023-10-22T12:38:23.368Z,47.00
2023-10-22T12:38:32.743Z,46.80
2023-10-22T12:38:51.530Z,46.90
2023-10-22T12:39:01.024Z,47.10
2023-10-22T12:39:10.376Z,47.10
2023-10-22T12:39:22.076Z,47.10
2023-10-22T12:39:29.177Z,47.20
2023-10-22T12:39:38.875Z,47.10
2023-10-22T12:39:57.419Z,47.00
2023-10-22T12:40:06.882Z,47.00
2023-10-22T12:40:16.321Z,47.00
2023-10-22T12:40:25.711Z,46.80
2023-10-22T12:40:35.131Z,46.90
2023-10-22T12:40:44.573Z,47.00
2023-10-22T12:41:03.522Z,47.30
2023-10-22T12:41:12.940Z,47.20
2023-10-22T12:41:22.356Z,47.20
2023-10-22T12:41:31.759Z,47.00
2023-10-22T12:41:41.174Z,46.70
2023-10-22T12:41:50.600Z,46.90
2023-10-22T12:42:09.519Z,46.90
2023-10-22T12:42:18.929Z,46.60
2023-10-22T12:42:29.345Z,46.50
2023-10-22T12:42:38.770Z,46.20
2023-10-22T12:42:48.151Z,45.90
2023-10-22T12:42:57.607Z,46.00
2023-10-22T12:43:16.437Z,45.80
2023-10-22T12:43:25.874Z,45.60
2023-10-22T12:43:35.268Z,45.20
2023-10-22T12:43:44.696Z,45.20
2023-10-22T12:43:54.110Z,45.20
2023-10-22T12:44:03.540Z,45.30
2023-10-22T12:44:22.370Z,45.00
2023-10-22T12:44:31.765Z,44.90
2023-10-22T12:44:41.220Z,44.80
2023-10-22T12:44:50.610Z,44.80
2023-10-22T12:45:00.020Z,44.80
2023-10-22T12:45:09.430Z,44.80
2023-10-22T12:45:28.237Z,45.00
2023-10-22T12:45:37.649Z,44.90
2023-10-22T12:45:47.004Z,44.80
2023-10-22T12:45:56.422Z,44.70
2023-10-22T12:46:05.880Z,44.80
2023-10-22T12:46:15.302Z,44.80
2023-10-22T12:46:34.134Z,44.60
2023-10-22T12:46:43.478Z,44.60
2023-10-22T12:46:52.896Z,44.60
2023-10-22T12:47:02.260Z,44.60
2023-10-22T12:47:11.641Z,44.70
2023-10-22T12:47:21.060Z,44.70
2023-10-22T12:47:39.887Z,44.60
2023-10-22T12:47:49.406Z,44.70
2023-10-22T12:47:58.797Z,44.80
2023-10-22T12:48:08.304Z,44.80
2023-10-22T12:48:17.730Z,44.70
2023-10-22T12:48:27.120Z,44.70
2023-10-22T12:48:45.892Z,44.70
2023-10-22T12:48:55.284Z,44.70
2023-10-22T12:49:04.732Z,44.70
2023-10-22T12:49:14.138Z,44.70
2023-10-22T12:49:23.557Z,44.90
2023-10-22T12:49:33.058Z,45.00
2023-10-22T12:49:51.929Z,45.20
2023-10-22T12:50:01.326Z,45.20
2023-10-22T12:50:10.764Z,45.10
2023-10-22T12:50:20.181Z,45.10
2023-10-22T12:50:29.576Z,45.10
2023-10-22T12:50:38.962Z,45.20
2023-10-22T12:50:57.839Z,45.30
2023-10-22T12:51:07.190Z,45.30
2023-10-22T12:51:16.590Z,45.40
2023-10-22T12:51:26.016Z,45.30
2023-10-22T12:51:35.447Z,45.40
2023-10-22T12:51:44.809Z,45.40
2023-10-22T12:52:03.623Z,45.50
2023-10-22T12:52:13.024Z,45.50
2023-10-22T12:52:22.411Z,45.40
2023-10-22T12:52:31.798Z,45.50
2023-10-22T12:52:41.218Z,45.40
2023-10-22T12:52:50.645Z,45.50
2023-10-22T12:53:09.467Z,45.30
2023-10-22T12:53:18.906Z,45.40
2023-10-22T12:53:28.306Z,45.30
2023-10-22T12:53:37.738Z,45.40
2023-10-22T12:53:47.142Z,45.50
2023-10-22T12:53:56.701Z,45.50
2023-10-22T12:54:15.555Z,45.60
2023-10-22T12:54:24.978Z,45.50
2023-10-22T12:54:34.434Z,45.50
2023-10-22T12:54:44.060Z,45.70
2023-10-22T12:54:53.143Z,45.90
2023-10-22T12:55:02.595Z,46.00
2023-10-22T12:55:21.469Z,46.20
2023-10-22T12:55:30.866Z,46.30
2023-10-22T12:55:40.267Z,46.20
2023-10-22T12:55:49.680Z,46.30
2023-10-22T12:55:59.096Z,46.30
2023-10-22T12:56:08.518Z,46.40
2023-10-22T12:56:27.417Z,46.60
2023-10-22T12:56:36.806Z,46.70
2023-10-22T12:56:46.200Z,46.80
2023-10-22T12:56:55.648Z,47.10
2023-10-22T12:57:05.137Z,47.20
2023-10-22T12:57:14.552Z,47.40
2023-10-22T12:57:33.402Z,47.70
2023-10-22T12:57:42.754Z,47.70
2023-10-22T12:57:52.195Z,47.80
2023-10-22T12:58:01.618Z,48.00
2023-10-22T12:58:11.023Z,48.10
2023-10-22T12:58:20.467Z,48.00
2023-10-22T12:58:39.344Z,47.90
2023-10-22T12:58:48.741Z,48.00
2023-10-22T12:58:58.153Z,48.00
2023-10-22T12:59:07.583Z,48.00
2023-10-22T12:59:17.003Z,48.00
2023-10-22T12:59:26.411Z,48.00
2023-10-22T12:59:45.269Z,48.10
2023-10-22T12:59:54.720Z,48.30
2023-10-22T13:00:04.105Z,48.50
2023-10-22T13:00:14.029Z,48.60
2023-10-22T13:00:22.955Z,48.70
2023-10-22T13:00:32.352Z,48.70
2023-10-22T13:00:51.206Z,48.80
2023-10-22T13:01:01.251Z,49.00
2023-10-22T13:01:10.098Z,49.10
2023-10-22T13:01:19.548Z,49.20
2023-10-22T13:01:29.076Z,49.20
2023-10-22T13:01:38.446Z,49.20
2023-10-22T13:01:57.394Z,49.40
2023-10-22T13:02:06.779Z,49.50
2023-10-22T13:02:16.137Z,49.60
2023-10-22T13:02:25.588Z,49.70
2023-10-22T13:02:34.987Z,49.90
2023-10-22T13:02:44.453Z,50.00
2023-10-22T13:03:03.299Z,50.20
2023-10-22T13:03:12.749Z,50.30
2023-10-22T13:03:22.234Z,50.40
2023-10-22T13:03:31.597Z,50.50
2023-10-22T13:03:40.962Z,50.60
2023-10-22T13:03:50.431Z,50.50
2023-10-22T13:04:09.154Z,50.50
2023-10-22T13:04:18.548Z,50.50
2023-10-22T13:04:28.064Z,50.60
2023-10-22T13:04:37.882Z,50.50
2023-10-22T13:04:46.984Z,50.50
2023-10-22T13:04:56.181Z,50.60
2023-10-22T13:05:15.042Z,50.70
2023-10-22T13:05:24.438Z,50.80
2023-10-22T13:05:33.825Z,50.90
2023-10-22T13:05:43.243Z,51.00
2023-10-22T13:05:52.694Z,51.10
2023-10-22T13:06:02.109Z,51.20
2023-10-22T13:06:21.000Z,51.30
2023-10-22T13:06:30.448Z,51.40
2023-10-22T13:06:39.882Z,51.50
2023-10-22T13:06:49.223Z,51.60
2023-10-22T13:06:58.658Z,51.80
2023-10-22T13:07:08.124Z,51.80
2023-10-22T13:07:27.029Z,52.10
2023-10-22T13:07:36.718Z,52.20
2023-10-22T13:07:46.307Z,52.40
2023-10-22T13:07:55.760Z,52.80
2023-10-22T13:08:05.287Z,52.90
2023-10-22T13:08:14.682Z,53.10
2023-10-22T13:08:33.511Z,53.50
2023-10-22T13:08:42.920Z,53.70
2023-10-22T13:08:52.311Z,53.80
2023-10-22T13:09:01.749Z,53.90
2023-10-22T13:09:11.174Z,53.90
2023-10-22T13:09:20.591Z,54.00
2023-10-22T13:09:39.364Z,54.20
2023-10-22T13:09:48.758Z,54.20
2023-10-22T13:09:58.180Z,54.30
2023-10-22T13:10:07.680Z,54.40
2023-10-22T13:10:17.151Z,54.50
2023-10-22T13:10:26.545Z,54.60
2023-10-22T13:10:45.336Z,54.70
2023-10-22T13:10:54.722Z,54.80
2023-10-22T13:11:04.128Z,55.00
2023-10-22T13:11:13.548Z,55.10
2023-10-22T13:11:22.989Z,55.20
2023-10-22T13:11:32.415Z,55.30
2023-10-22T13:11:51.249Z,55.60
2023-10-22T13:12:00.713Z,55.70
2023-10-22T13:12:10.066Z,55.80
2023-10-22T13:12:19.536Z,56.00
2023-10-22T13:12:28.939Z,56.10
2023-10-22T13:12:38.325Z,56.20
2023-10-22T13:13:09.518Z,56.40
2023-10-22T13:13:10.847Z,56.50
2023-10-22T13:13:15.993Z,56.70
2023-10-22T13:13:25.397Z,56.80
2023-10-22T13:13:34.807Z,56.90
2023-10-22T13:13:44.201Z,57.00
2023-10-22T13:14:03.073Z,57.30
2023-10-22T13:14:12.494Z,57.50
2023-10-22T13:14:21.945Z,57.60
2023-10-22T13:14:31.296Z,57.70
2023-10-22T13:14:40.751Z,57.90
2023-10-22T13:14:51.386Z,58.00
2023-10-22T13:15:09.004Z,58.00
2023-10-22T13:15:18.481Z,57.90
2023-10-22T13:15:27.873Z,58.00
2023-10-22T13:15:37.418Z,58.00
2023-10-22T13:15:46.919Z,58.00
2023-10-22T13:15:56.215Z,58.10
2023-10-22T13:16:15.197Z,58.30
2023-10-22T13:16:24.628Z,58.30
2023-10-22T13:16:34.077Z,58.40
2023-10-22T13:16:43.476Z,58.40
2023-10-22T13:16:52.872Z,58.40
2023-10-22T13:17:02.305Z,58.50
2023-10-22T13:17:21.129Z,58.80
2023-10-22T13:17:30.547Z,58.90
2023-10-22T13:17:39.984Z,59.00
2023-10-22T13:17:49.399Z,59.10
2023-10-22T13:17:58.937Z,59.20
2023-10-22T13:18:08.424Z,59.40
2023-10-22T13:18:27.266Z,59.60
2023-10-22T13:18:36.594Z,59.70
2023-10-22T13:18:46.014Z,59.70
2023-10-22T13:18:55.453Z,59.80
2023-10-22T13:19:04.849Z,59.80
2023-10-22T13:19:14.307Z,60.00
2023-10-22T13:19:33.322Z,60.10
2023-10-22T13:19:42.731Z,60.30
2023-10-22T13:19:52.163Z,60.50
2023-10-22T13:20:01.607Z,60.40
2023-10-22T13:20:11.086Z,60.40
2023-10-22T13:20:20.576Z,60.40
2023-10-22T13:20:39.659Z,60.40
2023-10-22T13:20:51.193Z,60.50
2023-10-22T13:20:58.605Z,60.50
2023-10-22T13:21:10.724Z,60.60
2023-10-22T13:21:20.178Z,60.70
2023-10-22T13:21:29.545Z,60.80
2023-10-22T13:21:48.458Z,60.80
2023-10-22T13:21:57.763Z,60.80
2023-10-22T13:22:07.173Z,60.90
2023-10-22T13:22:16.565Z,60.70
2023-10-22T13:22:25.971Z,60.80
2023-10-22T13:22:35.461Z,60.80
2023-10-22T13:22:54.289Z,60.80
2023-10-22T13:23:03.709Z,60.80
2023-10-22T13:23:13.179Z,60.80
2023-10-22T13:23:22.622Z,60.80
2023-10-22T13:23:32.049Z,60.80
2023-10-22T13:23:41.442Z,61.00
2023-10-22T13:24:00.386Z,61.00
2023-10-22T13:24:09.719Z,61.00
2023-10-22T13:24:19.138Z,61.00
2023-10-22T13:24:28.547Z,60.80
2023-10-22T13:24:38.224Z,60.60
2023-10-22T13:24:47.402Z,60.30
2023-10-22T13:25:06.389Z,59.90
2023-10-22T13:25:15.818Z,59.90
2023-10-22T13:25:25.388Z,59.90
2023-10-22T13:25:34.788Z,60.00
2023-10-22T13:25:44.245Z,60.20
2023-10-22T13:25:53.661Z,60.20
2023-10-22T13:26:12.473Z,60.30
2023-10-22T13:26:21.895Z,60.30
2023-10-22T13:26:31.317Z,60.40
2023-10-22T13:26:40.728Z,60.50
2023-10-22T13:26:50.135Z,60.50
2023-10-22T13:26:59.581Z,60.50
2023-10-22T13:27:18.405Z,60.60
2023-10-22T13:27:27.814Z,60.40
2023-10-22T13:27:37.251Z,60.50
2023-10-22T13:27:46.612Z,60.40
2023-10-22T13:27:56.043Z,60.40
2023-10-22T13:28:05.458Z,60.40
2023-10-22T13:28:24.269Z,60.20
2023-10-22T13:28:33.771Z,60.10
2023-10-22T13:28:43.208Z,60.00
2023-10-22T13:28:52.657Z,60.00
2023-10-22T13:29:02.063Z,59.90
2023-10-22T13:29:11.490Z,59.80
2023-10-22T13:29:30.376Z,60.00
2023-10-22T13:29:39.799Z,59.80
2023-10-22T13:29:49.180Z,59.50
2023-10-22T13:29:58.647Z,59.20
2023-10-22T13:30:08.076Z,58.90
2023-10-22T13:30:17.591Z,58.70
2023-10-22T13:30:36.381Z,58.70
2023-10-22T13:30:45.810Z,58.70
2023-10-22T13:30:55.333Z,58.70
2023-10-22T13:31:04.760Z,58.70
2023-10-22T13:31:14.158Z,58.70
2023-10-22T13:31:23.644Z,58.60
2023-10-22T13:31:42.535Z,57.90
2023-10-22T13:31:52.158Z,57.60
2023-10-22T13:32:01.571Z,57.60
2023-10-22T13:32:10.990Z,57.60
2023-10-22T13:32:20.377Z,57.70
2023-10-22T13:32:31.016Z,57.70
2023-10-22T13:32:50.071Z,57.10
2023-10-22T13:32:59.587Z,57.20
2023-10-22T13:33:09.003Z,56.90
2023-10-22T13:33:18.382Z,56.40
2023-10-22T13:33:27.805Z,56.20
2023-10-22T13:33:37.189Z,56.00
2023-10-22T13:33:56.043Z,55.80
2023-10-22T13:34:05.554Z,55.70
2023-10-22T13:34:14.844Z,55.60
2023-10-22T13:34:24.257Z,55.70
2023-10-22T13:34:33.656Z,55.80
2023-10-22T13:34:43.203Z,55.80
2023-10-22T13:35:02.087Z,56.00
2023-10-22T13:35:11.526Z,56.10
2023-10-22T13:35:20.975Z,56.20
2023-10-22T13:35:33.099Z,56.30
2023-10-22T13:35:42.514Z,56.30
2023-10-22T13:35:51.925Z,56.30
2023-10-22T13:36:10.823Z,56.40
2023-10-22T13:36:20.206Z,56.40
2023-10-22T13:36:29.691Z,56.50
2023-10-22T13:36:39.022Z,56.50
2023-10-22T13:36:48.395Z,56.60
2023-10-22T13:36:57.811Z,56.70
2023-10-22T13:37:16.640Z,56.60
2023-10-22T13:37:26.109Z,56.50
2023-10-22T13:37:35.581Z,56.50
2023-10-22T13:37:45.001Z,56.50
2023-10-22T13:37:54.404Z,56.50
2023-10-22T13:38:03.837Z,56.60
2023-10-22T13:38:22.694Z,56.60
2023-10-22T13:38:32.100Z,56.40
2023-10-22T13:38:41.538Z,56.20
2023-10-22T13:38:51.056Z,55.90
2023-10-22T13:39:00.649Z,55.90
2023-10-22T13:39:09.970Z,56.00
2023-10-22T13:39:28.721Z,56.20
2023-10-22T13:39:38.174Z,56.30
2023-10-22T13:39:47.630Z,56.30
2023-10-22T13:39:57.068Z,56.40
2023-10-22T13:40:06.435Z,56.50
2023-10-22T13:40:15.896Z,56.50
2023-10-22T13:40:34.693Z,56.70
2023-10-22T13:40:44.125Z,56.70
2023-10-22T13:40:53.528Z,56.60
2023-10-22T13:41:02.939Z,56.60
2023-10-22T13:41:12.377Z,56.60
2023-10-22T13:41:21.806Z,56.50
2023-10-22T13:41:40.605Z,56.50
2023-10-22T13:41:50.036Z,56.40
2023-10-22T13:41:59.468Z,56.30
2023-10-22T13:42:08.880Z,56.40
2023-10-22T13:42:18.360Z,56.50
2023-10-22T13:42:27.776Z,56.50
2023-10-22T13:42:46.624Z,56.50
2023-10-22T13:42:56.081Z,56.50
2023-10-22T13:43:05.519Z,56.50
2023-10-22T13:43:14.972Z,56.50
2023-10-22T13:43:24.397Z,56.40
2023-10-22T13:43:33.819Z,56.40
2023-10-22T13:43:52.635Z,56.30
2023-10-22T13:44:02.052Z,56.40
2023-10-22T13:44:11.481Z,56.40
2023-10-22T13:44:20.887Z,56.40
2023-10-22T13:44:30.301Z,56.40
2023-10-22T13:44:39.768Z,56.10
2023-10-22T13:44:59.147Z,55.80
2023-10-22T13:45:08.647Z,55.70
2023-10-22T13:45:18.256Z,55.60
2023-10-22T13:45:27.743Z,55.70
2023-10-22T13:45:37.226Z,55.70
2023-10-22T13:45:46.605Z,55.70
2023-10-22T13:46:05.502Z,55.80
2023-10-22T13:46:14.891Z,55.80
2023-10-22T13:46:24.327Z,55.90
2023-10-22T13:46:33.802Z,55.90
2023-10-22T13:46:43.173Z,56.00
2023-10-22T13:46:52.563Z,56.00
2023-10-22T13:47:11.476Z,56.00
2023-10-22T13:47:20.907Z,55.90
2023-10-22T13:47:30.338Z,56.00
2023-10-22T13:47:39.723Z,56.10
2023-10-22T13:47:49.158Z,56.20
2023-10-22T13:47:58.676Z,56.20
2023-10-22T13:48:17.610Z,56.30
2023-10-22T13:48:27.030Z,56.40
2023-10-22T13:48:36.352Z,56.40
2023-10-22T13:48:45.738Z,56.40
2023-10-22T13:48:55.165Z,56.40
2023-10-22T13:49:04.791Z,56.50
2023-10-22T13:49:23.799Z,56.60
2023-10-22T13:49:33.245Z,56.70
2023-10-22T13:49:42.655Z,56.70
2023-10-22T13:49:52.097Z,56.60
2023-10-22T13:50:01.542Z,56.60
2023-10-22T13:50:10.950Z,56.60
2023-10-22T13:50:29.778Z,56.60
2023-10-22T13:50:39.171Z,56.60
2023-10-22T13:50:48.626Z,56.60
2023-10-22T13:50:57.991Z,56.60
2023-10-22T13:51:07.411Z,56.60
2023-10-22T13:51:16.858Z,56.60
2023-10-22T13:51:35.617Z,56.60
2023-10-22T13:51:45.007Z,56.40
2023-10-22T13:51:54.460Z,56.40
2023-10-22T13:52:03.863Z,56.40
2023-10-22T13:52:13.315Z,56.30
2023-10-22T13:52:22.718Z,56.30
2023-10-22T13:52:41.538Z,56.30
2023-10-22T13:52:50.937Z,56.40
2023-10-22T13:53:00.407Z,56.40
2023-10-22T13:53:09.831Z,56.60
2023-10-22T13:53:19.290Z,56.60
2023-10-22T13:53:28.686Z,56.60
2023-10-22T13:53:47.561Z,56.70
2023-10-22T13:53:56.978Z,56.80
2023-10-22T13:54:06.401Z,56.80
2023-10-22T13:54:15.784Z,56.80
2023-10-22T13:54:25.208Z,56.80
2023-10-22T13:54:34.748Z,56.80
2023-10-22T13:54:53.476Z,56.70
2023-10-22T13:55:02.889Z,56.80
2023-10-22T13:55:12.948Z,56.80
2023-10-22T13:55:22.435Z,56.80
2023-10-22T13:55:31.848Z,56.90
2023-10-22T13:55:41.210Z,56.90
2023-10-22T13:56:00.022Z,56.90
2023-10-22T13:56:09.459Z,57.00
2023-10-22T13:56:18.826Z,57.00
2023-10-22T13:56:28.222Z,57.00
2023-10-22T13:56:37.662Z,57.00
2023-10-22T13:56:47.050Z,57.00
2023-10-22T13:57:05.993Z,56.90
2023-10-22T13:57:15.422Z,56.80
2023-10-22T13:57:24.886Z,56.70
2023-10-22T13:57:34.364Z,56.60
2023-10-22T13:57:43.825Z,56.50
2023-10-22T13:57:53.221Z,56.50
2023-10-22T13:58:12.099Z,56.50
2023-10-22T13:58:21.523Z,56.50
2023-10-22T13:58:30.978Z,56.60
2023-10-22T13:58:40.331Z,56.60
2023-10-22T13:58:49.806Z,56.60
2023-10-22T13:58:59.320Z,56.60
2023-10-22T13:59:18.150Z,56.80
2023-10-22T13:59:27.646Z,56.80
2023-10-22T13:59:37.074Z,56.80
2023-10-22T13:59:46.475Z,56.70
2023-10-22T13:59:55.969Z,56.80
2023-10-22T14:00:05.386Z,56.80
2023-10-22T14:00:24.211Z,56.90
2023-10-22T14:00:33.611Z,57.00
2023-10-22T14:00:43.039Z,57.00
2023-10-22T14:00:52.376Z,57.10
2023-10-22T14:01:01.801Z,57.10
2023-10-22T14:01:11.252Z,57.10
2023-10-22T14:01:30.053Z,57.20
2023-10-22T14:01:39.440Z,57.20
2023-10-22T14:01:48.876Z,57.30
2023-10-22T14:01:58.267Z,57.30
2023-10-22T14:02:07.644Z,57.40
2023-10-22T14:02:17.049Z,57.50
2023-10-22T14:02:35.943Z,57.50
2023-10-22T14:02:45.430Z,57.50
2023-10-22T14:02:56.589Z,57.50
2023-10-22T14:03:04.184Z,57.50
2023-10-22T14:03:13.705Z,57.40
2023-10-22T14:03:23.069Z,57.40
2023-10-22T14:03:42.075Z,57.50
2023-10-22T14:03:51.328Z,57.50
2023-10-22T14:04:00.853Z,57.60
2023-10-22T14:04:10.211Z,57.60
2023-10-22T14:04:19.560Z,57.60
2023-10-22T14:04:29.039Z,57.70
2023-10-22T14:04:47.807Z,57.80
2023-10-22T14:04:57.153Z,57.60
2023-10-22T14:05:06.549Z,57.50
2023-10-22T14:05:15.991Z,57.40
2023-10-22T14:05:25.460Z,57.40
2023-10-22T14:05:34.998Z,57.40
2023-10-22T14:05:53.963Z,57.50
2023-10-22T14:06:03.405Z,57.60
2023-10-22T14:06:12.831Z,57.60
2023-10-22T14:06:22.206Z,57.60
2023-10-22T14:06:31.627Z,57.60
2023-10-22T14:06:43.709Z,57.60
2023-10-22T14:07:02.531Z,57.50
2023-10-22T14:07:11.945Z,57.50
2023-10-22T14:07:21.382Z,57.50
2023-10-22T14:07:30.796Z,57.50
2023-10-22T14:07:40.192Z,57.60